createdAt,value
2023-05-23T00:00:01.826Z,57.19
2023-05-23T00:01:01.829Z,57.10
2023-05-23T00:02:01.894Z,55.31
2023-05-23T00:03:01.901Z,56.75
2023-05-23T00:04:02.001Z,56.22
2023-05-23T00:05:01.799Z,57.83
2023-05-23T00:06:01.888Z,58.12
2023-05-23T00:07:01.761Z,53.38
2023-05-23T00:08:01.837Z,53.66
2023-05-23T00:09:01.783Z,56.11
2023-05-23T00:10:01.784Z,54.75
2023-05-23T00:11:01.757Z,58.18
2023-05-23T00:12:01.760Z,51.84
2023-05-23T00:13:01.706Z,54.49
2023-05-23T00:14:01.715Z,56.42
2023-05-23T00:15:01.687Z,56.90
2023-05-23T00:16:01.723Z,56.54
2023-05-23T00:17:01.794Z,53.96
2023-05-23T00:18:01.693Z,53.24
2023-05-23T00:19:01.725Z,56.53
2023-05-23T00:20:01.659Z,56.58
2023-05-23T00:21:01.651Z,55.73
2023-05-23T00:22:01.793Z,56.99
2023-05-23T00:23:01.667Z,54.51
2023-05-23T00:24:01.662Z,56.59
2023-05-23T00:25:01.613Z,55.37
2023-05-23T00:26:01.641Z,59.94
2023-05-23T00:27:01.591Z,55.54
2023-05-23T00:28:01.598Z,57.96
2023-05-23T00:29:01.595Z,54.48
2023-05-23T00:30:01.594Z,53.77
2023-05-23T00:31:01.611Z,54.59
2023-05-23T00:32:01.641Z,55.17
2023-05-23T00:33:01.607Z,56.49
2023-05-23T00:34:01.555Z,57.64
2023-05-23T00:35:01.557Z,57.42
2023-05-23T00:36:01.537Z,55.52
2023-05-23T00:37:02.216Z,55.41
2023-05-23T00:38:02.471Z,57.48
2023-05-23T00:39:01.519Z,57.71
2023-05-23T00:40:01.513Z,57.93
2023-05-23T00:41:01.493Z,54.83
2023-05-23T00:42:01.495Z,56.33
2023-05-23T00:43:01.470Z,56.05
2023-05-23T00:44:01.489Z,56.87
2023-05-23T00:45:02.317Z,56.40
2023-05-23T00:46:01.874Z,55.34
2023-05-23T00:47:02.410Z,55.75
2023-05-23T00:48:01.963Z,54.84
2023-05-23T00:49:01.419Z,53.00
2023-05-23T00:50:01.551Z,56.04
2023-05-23T00:51:01.419Z,57.09
2023-05-23T00:52:02.379Z,58.24
2023-05-23T00:53:01.430Z,55.47
2023-05-23T00:54:01.431Z,59.56
2023-05-23T00:55:01.381Z,56.99
2023-05-23T00:56:01.387Z,57.33
2023-05-23T00:57:01.359Z,55.42
2023-05-23T00:58:01.379Z,55.06
2023-05-23T00:59:01.379Z,53.53
2023-05-23T01:00:01.360Z,55.84
2023-05-23T01:01:01.334Z,58.10
2023-05-23T01:02:01.406Z,56.35
2023-05-23T01:03:01.427Z,56.62
2023-05-23T01:04:01.357Z,55.05
2023-05-23T01:05:01.306Z,60.03
2023-05-23T01:06:01.302Z,55.94
2023-05-23T01:07:01.330Z,54.82
2023-05-23T01:08:01.313Z,56.05
2023-05-23T01:09:01.353Z,56.64
2023-05-23T01:10:01.375Z,53.66
2023-05-23T01:11:01.244Z,54.36
2023-05-23T01:12:01.330Z,56.54
2023-05-23T01:13:01.241Z,54.11
2023-05-23T01:14:01.247Z,59.00
2023-05-23T01:15:01.236Z,55.55
2023-05-23T01:16:02.900Z,56.39
2023-05-23T01:17:01.188Z,56.13
2023-05-23T01:18:01.272Z,56.33
2023-05-23T01:19:01.229Z,57.97
2023-05-23T01:20:01.219Z,54.14
2023-05-23T01:21:01.232Z,56.61
2023-05-23T01:22:01.166Z,52.53
2023-05-23T01:23:01.187Z,59.98
2023-05-23T01:24:01.156Z,58.17
2023-05-23T01:25:01.145Z,56.51
2023-05-23T01:26:01.245Z,57.04
2023-05-23T01:27:01.156Z,57.12
2023-05-23T01:28:01.125Z,55.25
2023-05-23T01:29:01.107Z,56.47
2023-05-23T01:30:01.151Z,57.18
2023-05-23T01:31:01.079Z,57.28
2023-05-23T01:32:01.143Z,55.07
2023-05-23T01:33:01.127Z,55.51
2023-05-23T01:34:01.087Z,56.26
2023-05-23T01:35:01.051Z,59.58
2023-05-23T01:36:01.058Z,59.60
2023-05-23T01:37:01.025Z,58.01
2023-05-23T01:38:01.049Z,58.15
2023-05-23T01:39:01.025Z,57.55
2023-05-23T01:40:01.015Z,54.70
2023-05-23T01:41:01.009Z,56.59
2023-05-23T01:42:01.104Z,58.29
2023-05-23T01:43:00.981Z,56.60
2023-05-23T01:44:01.011Z,56.90
2023-05-23T01:45:00.980Z,59.05
2023-05-23T01:46:01.065Z,57.01
2023-05-23T01:47:00.953Z,57.03
2023-05-23T01:48:00.984Z,55.47
2023-05-23T01:49:00.959Z,56.79
2023-05-23T01:50:00.937Z,58.39
2023-05-23T01:51:00.908Z,59.05
2023-05-23T01:52:00.961Z,54.04
2023-05-23T01:53:00.912Z,56.27
2023-05-23T01:54:00.896Z,59.23
2023-05-23T01:55:00.886Z,56.44
2023-05-23T01:56:00.904Z,56.71
2023-05-23T01:57:00.884Z,56.22
2023-05-23T01:58:00.974Z,58.61
2023-05-23T01:59:00.844Z,54.87
2023-05-23T02:00:00.873Z,55.81
2023-05-23T02:01:00.936Z,55.34
2023-05-23T02:02:00.836Z,54.29
2023-05-23T02:03:00.916Z,55.37
2023-05-23T02:04:00.852Z,56.42
2023-05-23T02:05:00.795Z,54.52
2023-05-23T02:06:00.829Z,55.67
2023-05-23T02:07:00.775Z,56.65
2023-05-23T02:08:00.796Z,56.41
2023-05-23T02:09:00.820Z,53.56
2023-05-23T02:10:00.775Z,55.67
2023-05-23T02:11:00.752Z,53.87
2023-05-23T02:12:00.780Z,55.96
2023-05-23T02:13:00.763Z,56.69
2023-05-23T02:14:00.816Z,54.49
2023-05-23T02:15:00.728Z,55.46
2023-05-23T02:16:00.713Z,55.27
2023-05-23T02:17:00.749Z,51.77
2023-05-23T02:18:00.746Z,51.75
2023-05-23T02:19:00.709Z,58.50
2023-05-23T02:20:00.679Z,56.96
2023-05-23T02:21:00.694Z,56.39
2023-05-23T02:22:00.696Z,57.75
2023-05-23T02:23:00.666Z,54.27
2023-05-23T02:24:00.672Z,56.02
2023-05-23T02:25:00.634Z,54.68
2023-05-23T02:26:00.752Z,56.35
2023-05-23T02:27:00.835Z,57.56
2023-05-23T02:28:00.683Z,59.98
2023-05-23T02:29:00.687Z,57.39
2023-05-23T02:30:00.693Z,56.03
2023-05-23T02:31:00.683Z,63.51
2023-05-23T02:32:00.589Z,67.21
2023-05-23T02:33:00.627Z,68.02
2023-05-23T02:34:00.614Z,68.08
2023-05-23T02:35:00.545Z,62.37
2023-05-23T02:36:00.594Z,59.52
2023-05-23T02:37:00.552Z,59.77
2023-05-23T02:38:00.562Z,57.86
2023-05-23T02:39:00.570Z,60.58
2023-05-23T02:40:00.520Z,60.90
2023-05-23T02:41:00.539Z,62.03
2023-05-23T02:42:00.563Z,59.81
2023-05-23T02:43:00.483Z,60.96
2023-05-23T02:44:00.514Z,59.90
2023-05-23T02:45:00.487Z,62.71
2023-05-23T02:46:00.615Z,60.84
2023-05-23T02:47:00.472Z,61.23
2023-05-23T02:48:00.547Z,60.54
2023-05-23T02:49:00.446Z,61.38
2023-05-23T02:50:00.430Z,60.29
2023-05-23T02:51:00.401Z,60.11
2023-05-23T02:52:00.421Z,58.48
2023-05-23T02:53:00.389Z,58.32
2023-05-23T02:54:00.412Z,59.85
2023-05-23T02:55:00.368Z,60.45
2023-05-23T02:56:00.402Z,61.07
2023-05-23T02:57:00.357Z,59.08
2023-05-23T02:58:00.374Z,58.87
2023-05-23T02:59:00.382Z,60.45
2023-05-23T03:00:00.408Z,57.50
2023-05-23T03:01:00.328Z,56.80
2023-05-23T03:02:00.441Z,59.12
2023-05-23T03:03:00.457Z,61.91
2023-05-23T03:04:00.408Z,60.50
2023-05-23T03:05:00.369Z,60.76
2023-05-23T03:06:00.313Z,57.55
2023-05-23T03:07:00.285Z,59.12
2023-05-23T03:08:00.369Z,59.25
2023-05-23T03:09:00.262Z,59.35
2023-05-23T03:10:00.237Z,60.19
2023-05-23T03:11:00.270Z,55.94
2023-05-23T03:12:00.279Z,57.22
2023-05-23T03:13:00.266Z,58.69
2023-05-23T03:14:00.209Z,59.95
2023-05-23T03:15:00.245Z,58.60
2023-05-23T03:16:00.285Z,58.62
2023-05-23T03:17:00.180Z,56.86
2023-05-23T03:18:00.300Z,56.88
2023-05-23T03:19:00.224Z,56.73
2023-05-23T03:20:00.207Z,56.16
2023-05-23T03:21:00.200Z,57.64
2023-05-23T03:22:00.153Z,58.54
2023-05-23T03:23:00.180Z,57.17
2023-05-23T03:24:00.162Z,59.06
2023-05-23T03:25:00.189Z,59.41
2023-05-23T03:26:00.165Z,57.63
2023-05-23T03:27:00.156Z,57.21
2023-05-23T03:28:00.105Z,58.23
2023-05-23T03:29:00.168Z,60.44
2023-05-23T03:30:00.107Z,59.37
2023-05-23T03:31:00.123Z,59.24
2023-05-23T03:32:00.277Z,60.24
2023-05-23T03:33:00.229Z,59.41
2023-05-23T03:34:00.175Z,60.19
2023-05-23T03:35:00.047Z,59.64
2023-05-23T03:36:00.042Z,60.80
2023-05-23T03:37:00.044Z,62.10
2023-05-23T03:38:00.068Z,60.66
2023-05-23T03:39:00.021Z,59.07
2023-05-23T03:40:00.038Z,60.33
2023-05-23T03:40:59.990Z,59.30
2023-05-23T03:41:59.983Z,59.88
2023-05-23T03:43:00.022Z,59.76
2023-05-23T03:43:59.965Z,60.91
2023-05-23T03:44:59.953Z,59.84
2023-05-23T03:45:59.976Z,61.64
2023-05-23T03:47:00.008Z,61.66
2023-05-23T03:48:00.005Z,59.31
2023-05-23T03:48:59.950Z,60.31
2023-05-23T03:50:00.042Z,59.34
2023-05-23T03:50:59.932Z,58.50
2023-05-23T03:51:59.905Z,59.81
2023-05-23T03:52:59.909Z,60.90
2023-05-23T03:53:59.894Z,58.46
2023-05-23T03:54:59.907Z,58.80
2023-05-23T03:55:59.879Z,60.74
2023-05-23T03:56:59.863Z,59.52
2023-05-23T03:57:59.857Z,58.41
2023-05-23T03:58:59.850Z,61.55
2023-05-23T03:59:59.837Z,59.95
2023-05-23T04:01:01.912Z,61.30
2023-05-23T04:01:59.921Z,61.82
2023-05-23T04:02:59.967Z,58.25
2023-05-23T04:03:59.993Z,60.03
2023-05-23T04:04:59.807Z,60.45
2023-05-23T04:05:59.893Z,62.10
2023-05-23T04:06:59.809Z,61.84
2023-05-23T04:07:59.779Z,59.85
2023-05-23T04:08:59.758Z,61.37
2023-05-23T04:09:59.757Z,60.73
2023-05-23T04:10:59.909Z,59.71
2023-05-23T04:11:59.754Z,61.20
2023-05-23T04:12:59.806Z,61.55
2023-05-23T04:13:59.724Z,61.06
2023-05-23T04:14:59.749Z,59.29
2023-05-23T04:15:59.727Z,58.23
2023-05-23T04:16:59.720Z,59.40
2023-05-23T04:17:59.802Z,60.35
2023-05-23T04:18:59.697Z,60.42
2023-05-23T04:19:59.680Z,59.02
2023-05-23T04:20:59.662Z,60.29
2023-05-23T04:21:59.775Z,61.53
2023-05-23T04:22:59.698Z,60.06
2023-05-23T04:23:59.651Z,60.89
2023-05-23T04:24:59.659Z,61.85
2023-05-23T04:25:59.625Z,60.78
2023-05-23T04:26:59.615Z,59.24
2023-05-23T04:27:59.625Z,61.09
2023-05-23T04:28:59.620Z,59.85
2023-05-23T04:29:59.640Z,61.66
2023-05-23T04:30:59.635Z,60.63
2023-05-23T04:31:59.608Z,60.29
2023-05-23T04:32:59.618Z,60.62
2023-05-23T04:33:59.578Z,59.63
2023-05-23T04:34:59.568Z,62.03
2023-05-23T04:35:59.578Z,61.01
2023-05-23T04:36:59.555Z,58.50
2023-05-23T04:37:59.626Z,58.93
2023-05-23T04:38:59.535Z,59.29
2023-05-23T04:39:59.543Z,60.40
2023-05-23T04:40:59.632Z,59.57
2023-05-23T04:41:59.547Z,60.39
2023-05-23T04:42:59.515Z,61.25
2023-05-23T04:43:59.510Z,61.13
2023-05-23T04:44:59.477Z,62.36
2023-05-23T04:45:59.532Z,62.77
2023-05-23T04:46:59.487Z,61.16
2023-05-23T04:47:59.555Z,61.69
2023-05-23T04:48:59.459Z,61.63
2023-05-23T04:49:59.457Z,62.98
2023-05-23T04:50:59.471Z,61.40
2023-05-23T04:51:59.492Z,61.40
2023-05-23T04:52:59.454Z,62.42
2023-05-23T04:53:59.499Z,60.96
2023-05-23T04:54:59.419Z,60.70
2023-05-23T04:55:59.435Z,60.11
2023-05-23T04:56:59.389Z,61.86
2023-05-23T04:57:59.441Z,61.05
2023-05-23T04:58:59.400Z,61.22
2023-05-23T04:59:59.396Z,60.90
2023-05-23T05:00:59.459Z,62.57
2023-05-23T05:01:59.367Z,60.64
2023-05-23T05:02:59.384Z,61.82
2023-05-23T05:03:59.399Z,61.70
2023-05-23T05:04:59.329Z,60.92
2023-05-23T05:05:59.339Z,59.26
2023-05-23T05:06:59.290Z,60.45
2023-05-23T05:07:59.317Z,58.15
2023-05-23T05:08:59.330Z,59.62
2023-05-23T05:10:01.078Z,59.99
2023-05-23T05:10:59.315Z,60.63
2023-05-23T05:11:59.294Z,60.87
2023-05-23T05:12:59.256Z,62.06
2023-05-23T05:13:59.294Z,62.27
2023-05-23T05:14:59.225Z,61.51
2023-05-23T05:15:59.269Z,60.77
2023-05-23T05:16:59.232Z,62.52
2023-05-23T05:17:59.222Z,63.23
2023-05-23T05:18:59.240Z,61.29
2023-05-23T05:19:59.209Z,60.25
2023-05-23T05:20:59.257Z,61.96
2023-05-23T05:21:59.173Z,61.23
2023-05-23T05:22:59.138Z,61.01
2023-05-23T05:23:59.154Z,61.41
2023-05-23T05:24:59.147Z,61.13
2023-05-23T05:25:59.241Z,61.45
2023-05-23T05:26:59.174Z,62.75
2023-05-23T05:27:59.144Z,61.32
2023-05-23T05:28:59.123Z,61.77
2023-05-23T05:29:59.123Z,62.38
2023-05-23T05:30:59.136Z,60.88
2023-05-23T05:31:59.082Z,61.11
2023-05-23T05:32:59.118Z,60.24
2023-05-23T05:33:59.105Z,61.90
2023-05-23T05:34:59.062Z,61.93
2023-05-23T05:35:59.050Z,61.74
2023-05-23T05:36:59.064Z,61.67
2023-05-23T05:37:59.047Z,61.39
2023-05-23T05:38:59.078Z,62.43
2023-05-23T05:39:59.101Z,62.96
2023-05-23T05:40:59.021Z,61.33
2023-05-23T05:41:59.110Z,61.81
2023-05-23T05:42:59.003Z,61.80
2023-05-23T05:43:59.044Z,61.19
2023-05-23T05:44:59.012Z,61.16
2023-05-23T05:45:59.014Z,61.79
2023-05-23T05:46:58.978Z,61.30
2023-05-23T05:47:59.033Z,61.14
2023-05-23T05:48:58.962Z,62.11
2023-05-23T05:49:58.936Z,62.56
2023-05-23T05:50:58.934Z,61.36
2023-05-23T05:51:58.941Z,60.19
2023-05-23T05:52:58.925Z,59.80
2023-05-23T05:53:58.955Z,61.67
2023-05-23T05:54:58.928Z,59.65
2023-05-23T05:55:58.880Z,62.39
2023-05-23T05:56:58.868Z,61.81
2023-05-23T05:57:58.987Z,61.19
2023-05-23T05:58:58.850Z,60.40
2023-05-23T05:59:58.880Z,59.88
2023-05-23T06:00:58.841Z,60.75
2023-05-23T06:01:58.897Z,59.82
2023-05-23T06:02:58.936Z,62.10
2023-05-23T06:03:59.059Z,61.76
2023-05-23T06:04:58.824Z,61.94
2023-05-23T06:05:58.822Z,60.79
2023-05-23T06:06:58.794Z,62.60
2023-05-23T06:07:58.815Z,59.81
2023-05-23T06:08:58.791Z,62.82
2023-05-23T06:09:58.796Z,61.59
2023-05-23T06:10:58.793Z,61.69
2023-05-23T06:11:58.793Z,61.85
2023-05-23T06:12:58.754Z,60.39
2023-05-23T06:13:58.827Z,58.28
2023-05-23T06:14:58.736Z,60.35
2023-05-23T06:15:58.773Z,60.28
2023-05-23T06:16:58.710Z,61.01
2023-05-23T06:17:58.826Z,60.15
2023-05-23T06:18:58.739Z,60.16
2023-05-23T06:19:58.707Z,60.55
2023-05-23T06:20:58.673Z,61.47
2023-05-23T06:21:58.676Z,58.67
2023-05-23T06:22:58.664Z,61.28
2023-05-23T06:23:58.824Z,60.23
2023-05-23T06:24:59.347Z,59.74
2023-05-23T06:25:58.697Z,59.65
2023-05-23T06:26:58.661Z,59.42
2023-05-23T06:27:58.632Z,59.59
2023-05-23T06:28:58.589Z,58.49
2023-05-23T06:29:58.602Z,57.99
2023-05-23T06:30:58.601Z,57.42
2023-05-23T06:31:58.642Z,59.62
2023-05-23T06:32:58.641Z,59.46
2023-05-23T06:33:58.615Z,57.97
2023-05-23T06:34:58.544Z,57.23
2023-05-23T06:35:58.604Z,58.23
2023-05-23T06:36:58.560Z,57.80
2023-05-23T06:37:58.526Z,57.72
2023-05-23T06:38:58.564Z,56.70
2023-05-23T06:39:58.573Z,59.86
2023-05-23T06:40:58.481Z,59.16
2023-05-23T06:41:58.496Z,59.01
2023-05-23T06:42:58.485Z,57.68
2023-05-23T06:43:58.498Z,57.37
2023-05-23T06:44:58.484Z,57.52
2023-05-23T06:45:58.596Z,56.85
2023-05-23T06:46:58.487Z,58.17
2023-05-23T06:47:58.585Z,58.91
2023-05-23T06:49:13.308Z,58.06
2023-05-23T06:49:59.462Z,59.80
2023-05-23T06:50:58.493Z,59.55
2023-05-23T06:52:05.453Z,58.96
2023-05-23T06:52:58.406Z,60.30
2023-05-23T06:53:58.420Z,58.87
2023-05-23T06:54:58.397Z,58.23
2023-05-23T06:55:58.412Z,58.69
2023-05-23T06:56:58.372Z,59.55
2023-05-23T06:57:58.396Z,58.25
2023-05-23T06:58:58.352Z,58.67
2023-05-23T06:59:58.372Z,60.09
2023-05-23T07:00:58.380Z,59.42
2023-05-23T07:01:58.423Z,59.83
2023-05-23T07:02:58.342Z,58.24
2023-05-23T07:03:58.343Z,58.63
2023-05-23T07:04:58.328Z,59.94
2023-05-23T07:05:58.365Z,60.12
2023-05-23T07:06:58.294Z,61.43
2023-05-23T07:07:58.293Z,61.29
2023-05-23T07:08:58.265Z,60.53
2023-05-23T07:09:58.278Z,60.65
2023-05-23T07:10:58.277Z,57.60
2023-05-23T07:11:58.271Z,57.53
2023-05-23T07:12:58.246Z,58.98
2023-05-23T07:13:58.257Z,60.13
2023-05-23T07:14:58.227Z,59.47
2023-05-23T07:15:58.256Z,60.14
2023-05-23T07:16:58.285Z,59.57
2023-05-23T07:17:58.279Z,59.42
2023-05-23T07:18:58.236Z,60.50
2023-05-23T07:19:58.197Z,58.96
2023-05-23T07:20:58.203Z,59.32
2023-05-23T07:21:58.185Z,58.43
2023-05-23T07:22:58.168Z,59.53
2023-05-23T07:23:58.175Z,57.99
2023-05-23T07:24:58.177Z,58.75
2023-05-23T07:26:02.480Z,59.04
2023-05-23T07:26:58.112Z,57.77
2023-05-23T07:27:58.162Z,56.12
2023-05-23T07:28:58.134Z,58.30
2023-05-23T07:29:58.135Z,59.28
2023-05-23T07:30:58.221Z,57.68
2023-05-23T07:31:58.111Z,58.65
2023-05-23T07:32:58.192Z,57.89
2023-05-23T07:33:58.570Z,58.31
2023-05-23T07:34:58.083Z,59.08
2023-05-23T07:35:58.092Z,58.66
2023-05-23T07:36:58.052Z,58.16
2023-05-23T07:37:58.074Z,59.44
2023-05-23T07:38:58.021Z,58.87
2023-05-23T07:39:58.048Z,58.96
2023-05-23T07:41:09.881Z,59.05
2023-05-23T07:41:59.061Z,59.17
2023-05-23T07:42:57.993Z,60.17
2023-05-23T07:43:57.994Z,59.95
2023-05-23T07:44:58.002Z,56.70
2023-05-23T07:45:57.983Z,58.92
2023-05-23T07:46:58.019Z,60.53
2023-05-23T07:47:58.038Z,60.02
2023-05-23T07:48:57.985Z,59.93
2023-05-23T07:49:57.975Z,58.02
2023-05-23T07:50:57.942Z,59.66
2023-05-23T07:51:57.953Z,58.70
2023-05-23T07:52:57.904Z,59.48
2023-05-23T07:53:57.935Z,58.26
2023-05-23T07:54:57.932Z,59.80
2023-05-23T07:55:57.902Z,57.91
2023-05-23T07:56:57.887Z,60.05
2023-05-23T07:57:57.899Z,59.17
2023-05-23T07:58:57.882Z,57.72
2023-05-23T07:59:57.898Z,59.79
2023-05-23T08:00:57.853Z,59.27
2023-05-23T08:01:57.867Z,58.13
2023-05-23T08:02:57.873Z,58.55
2023-05-23T08:03:57.870Z,59.08
2023-05-23T08:04:57.802Z,60.12
2023-05-23T08:05:57.836Z,58.28
2023-05-23T08:07:04.991Z,57.71
2023-05-23T08:07:58.816Z,58.73
2023-05-23T08:08:57.802Z,57.92
2023-05-23T08:09:57.800Z,58.85
2023-05-23T08:10:57.779Z,56.82
2023-05-23T08:11:57.796Z,57.26
2023-05-23T08:12:57.744Z,58.28
2023-05-23T08:13:59.432Z,59.36
2023-05-23T08:14:57.731Z,59.34
2023-05-23T08:15:57.792Z,58.25
2023-05-23T08:16:57.867Z,58.92
2023-05-23T08:17:57.765Z,57.29
2023-05-23T08:18:57.748Z,59.41
2023-05-23T08:19:57.748Z,59.82
2023-05-23T08:20:57.670Z,59.81
2023-05-23T08:21:57.709Z,58.62
2023-05-23T08:22:57.673Z,60.69
2023-05-23T08:23:57.664Z,61.64
2023-05-23T08:24:57.675Z,60.68
2023-05-23T08:25:57.725Z,61.09
2023-05-23T08:26:57.634Z,59.60
2023-05-23T08:27:57.682Z,60.75
2023-05-23T08:28:57.616Z,58.54
2023-05-23T08:29:57.652Z,57.99
2023-05-23T08:30:57.632Z,60.86
2023-05-23T08:31:57.673Z,59.69
2023-05-23T08:32:57.614Z,59.13
2023-05-23T08:33:57.601Z,59.81
2023-05-23T08:34:57.579Z,60.58
2023-05-23T08:35:57.603Z,60.61
2023-05-23T08:36:57.569Z,58.70
2023-05-23T08:37:57.595Z,57.90
2023-05-23T08:38:57.525Z,59.90
2023-05-23T08:39:57.524Z,59.21
2023-05-23T08:40:57.519Z,59.40
2023-05-23T08:41:57.525Z,57.60
2023-05-23T08:42:57.576Z,59.88
2023-05-23T08:43:57.558Z,58.71
2023-05-23T08:44:57.507Z,61.79
2023-05-23T08:45:57.532Z,58.93
2023-05-23T08:46:57.497Z,59.89
2023-05-23T08:47:57.565Z,59.91
2023-05-23T08:48:57.479Z,59.53
2023-05-23T08:49:57.453Z,61.27
2023-05-23T08:50:57.445Z,60.24
2023-05-23T08:51:57.438Z,60.76
2023-05-23T08:52:57.460Z,58.67
2023-05-23T08:53:57.601Z,61.10
2023-05-23T08:54:57.405Z,61.26
2023-05-23T08:55:57.444Z,59.74
2023-05-23T08:56:57.405Z,58.25
2023-05-23T08:57:57.382Z,58.72
2023-05-23T08:58:57.383Z,59.64
2023-05-23T08:59:57.380Z,60.15
2023-05-23T09:00:57.392Z,60.69
2023-05-23T09:01:57.388Z,60.20
2023-05-23T09:02:57.456Z,59.73
2023-05-23T09:03:57.369Z,58.36
2023-05-23T09:04:57.337Z,59.77
2023-05-23T09:05:57.460Z,60.36
2023-05-23T09:06:57.293Z,60.27
2023-05-23T09:07:57.322Z,57.88
2023-05-23T09:08:57.286Z,60.91
2023-05-23T09:09:57.356Z,58.59
2023-05-23T09:10:57.272Z,59.96
2023-05-23T09:11:57.285Z,59.43
2023-05-23T09:12:57.230Z,59.15
2023-05-23T09:13:57.273Z,59.45
2023-05-23T09:14:57.215Z,59.40
2023-05-23T09:15:57.284Z,61.01
2023-05-23T09:16:57.210Z,60.89
2023-05-23T09:17:57.323Z,61.02
2023-05-23T09:18:57.245Z,59.94
2023-05-23T09:19:57.222Z,60.93
2023-05-23T09:20:57.182Z,61.33
2023-05-23T09:21:57.194Z,57.06
2023-05-23T09:22:57.165Z,61.72
2023-05-23T09:23:57.188Z,58.30
2023-05-23T09:24:57.165Z,58.63
2023-05-23T09:25:57.183Z,59.71
2023-05-23T09:26:57.130Z,59.31
2023-05-23T09:27:57.186Z,61.01
2023-05-23T09:28:57.107Z,59.43
2023-05-23T09:29:57.150Z,61.44
2023-05-23T09:30:57.088Z,60.54
2023-05-23T09:31:57.250Z,58.68
2023-05-23T09:32:57.169Z,59.27
2023-05-23T09:33:57.076Z,59.77
2023-05-23T09:34:57.131Z,59.84
2023-05-23T09:35:57.064Z,58.17
2023-05-23T09:36:57.062Z,59.71
2023-05-23T09:37:57.071Z,58.81
2023-05-23T09:38:57.041Z,60.74
2023-05-23T09:39:57.087Z,58.96
2023-05-23T09:40:57.017Z,61.04
2023-05-23T09:41:57.020Z,60.87
2023-05-23T09:42:57.033Z,58.48
2023-05-23T09:43:56.994Z,58.75
2023-05-23T09:44:57.002Z,59.44
2023-05-23T09:45:56.985Z,61.00
2023-05-23T09:46:56.981Z,58.73
2023-05-23T09:47:56.979Z,59.18
2023-05-23T09:48:56.971Z,58.61
2023-05-23T09:49:56.953Z,58.52
2023-05-23T09:50:56.964Z,59.96
2023-05-23T09:51:56.928Z,59.56
2023-05-23T09:52:56.891Z,59.93
2023-05-23T09:53:56.913Z,60.94
2023-05-23T09:54:56.878Z,58.99
2023-05-23T09:55:56.921Z,60.43
2023-05-23T09:56:57.175Z,60.27
2023-05-23T09:57:56.885Z,59.84
2023-05-23T09:58:56.899Z,58.99
2023-05-23T09:59:56.884Z,59.21
2023-05-23T10:00:56.867Z,60.90
2023-05-23T10:01:56.855Z,60.51
2023-05-23T10:02:56.887Z,60.13
2023-05-23T10:03:59.606Z,60.91
2023-05-23T10:04:56.817Z,61.13
2023-05-23T10:05:56.818Z,61.69
2023-05-23T10:06:56.776Z,60.93
2023-05-23T10:07:56.796Z,61.88
2023-05-23T10:08:56.772Z,57.65
2023-05-23T10:09:58.906Z,58.06
2023-05-23T10:10:56.847Z,59.35
2023-05-23T10:11:56.760Z,60.05
2023-05-23T10:12:56.732Z,59.39
2023-05-23T10:13:56.890Z,59.57
2023-05-23T10:14:56.737Z,59.70
2023-05-23T10:15:57.641Z,59.70
2023-05-23T10:16:56.737Z,59.94
2023-05-23T10:17:56.784Z,60.48
2023-05-23T10:18:56.786Z,58.98
2023-05-23T10:19:56.700Z,59.44
2023-05-23T10:20:56.663Z,60.90
2023-05-23T10:21:56.713Z,58.82
2023-05-23T10:22:56.648Z,59.51
2023-05-23T10:23:56.686Z,57.38
2023-05-23T10:24:56.631Z,58.63
2023-05-23T10:25:56.687Z,59.25
2023-05-23T10:26:56.604Z,60.26
2023-05-23T10:27:56.620Z,63.64
2023-05-23T10:28:56.594Z,58.58
2023-05-23T10:29:56.601Z,59.59
2023-05-23T10:30:56.677Z,59.10
2023-05-23T10:31:56.606Z,57.51
2023-05-23T10:32:56.596Z,58.40
2023-05-23T10:33:56.590Z,57.04
2023-05-23T10:34:56.560Z,58.80
2023-05-23T10:35:56.572Z,58.36
2023-05-23T10:36:56.529Z,59.04
2023-05-23T10:37:56.551Z,58.64
2023-05-23T10:38:56.500Z,59.65
2023-05-23T10:39:56.513Z,59.91
2023-05-23T10:40:56.516Z,57.40
2023-05-23T10:41:56.528Z,60.73
2023-05-23T10:42:56.491Z,59.14
2023-05-23T10:43:56.494Z,60.31
2023-05-23T10:44:56.492Z,60.25
2023-05-23T10:45:56.528Z,59.64
2023-05-23T10:46:56.495Z,58.53
2023-05-23T10:47:56.455Z,59.73
2023-05-23T10:48:56.445Z,59.35
2023-05-23T10:49:56.448Z,59.52
2023-05-23T10:50:56.435Z,61.22
2023-05-23T10:51:56.439Z,59.70
2023-05-23T10:52:56.434Z,59.04
2023-05-23T10:53:56.407Z,59.84
2023-05-23T10:54:56.426Z,59.69
2023-05-23T10:55:56.410Z,60.34
2023-05-23T10:56:56.372Z,58.20
2023-05-23T10:57:56.363Z,61.97
2023-05-23T10:58:56.387Z,60.78
2023-05-23T10:59:56.384Z,60.05
2023-05-23T11:00:56.340Z,61.44
2023-05-23T11:01:56.561Z,60.51
2023-05-23T11:02:56.432Z,61.04
2023-05-23T11:03:56.714Z,62.33
2023-05-23T11:04:56.311Z,61.95
2023-05-23T11:05:56.320Z,59.89
2023-05-23T11:06:56.309Z,60.31
2023-05-23T11:07:56.315Z,59.90
2023-05-23T11:08:56.262Z,61.86
2023-05-23T11:09:56.289Z,59.93
2023-05-23T11:10:56.298Z,60.95
2023-05-23T11:11:56.285Z,62.44
2023-05-23T11:12:56.272Z,61.37
2023-05-23T11:13:56.264Z,59.79
2023-05-23T11:14:56.291Z,59.25
2023-05-23T11:15:56.294Z,58.94
2023-05-23T11:16:56.287Z,58.30
2023-05-23T11:17:56.287Z,59.42
2023-05-23T11:18:56.279Z,60.27
2023-05-23T11:19:56.191Z,61.11
2023-05-23T11:20:56.183Z,60.95
2023-05-23T11:21:56.196Z,59.75
2023-05-23T11:22:56.208Z,61.59
2023-05-23T11:23:56.167Z,60.40
2023-05-23T11:24:56.151Z,58.36
2023-05-23T11:25:56.133Z,59.60
2023-05-23T11:26:56.135Z,58.24
2023-05-23T11:27:56.154Z,58.23
2023-05-23T11:28:56.106Z,60.87
2023-05-23T11:29:56.130Z,60.47
2023-05-23T11:30:56.100Z,59.94
2023-05-23T11:31:56.132Z,58.92
2023-05-23T11:32:56.206Z,59.66
2023-05-23T11:33:56.117Z,58.59
2023-05-23T11:34:56.053Z,59.99
2023-05-23T11:35:56.076Z,58.60
2023-05-23T11:36:56.042Z,58.98
2023-05-23T11:37:56.068Z,59.96
2023-05-23T11:38:56.032Z,58.87
2023-05-23T11:39:56.067Z,60.85
2023-05-23T11:40:56.023Z,59.11
2023-05-23T11:41:56.033Z,60.30
2023-05-23T11:42:56.016Z,59.09
2023-05-23T11:43:56.021Z,60.85
2023-05-23T11:44:55.974Z,60.11
2023-05-23T11:45:56.024Z,60.13
2023-05-23T11:46:55.981Z,59.64
2023-05-23T11:47:56.050Z,58.75
2023-05-23T11:48:55.973Z,59.76
2023-05-23T11:49:55.957Z,60.08
2023-05-23T11:50:55.922Z,59.04
2023-05-23T11:51:55.943Z,59.15
2023-05-23T11:52:55.916Z,59.33
2023-05-23T11:53:55.930Z,59.39
2023-05-23T11:54:57.982Z,58.66
2023-05-23T11:55:55.921Z,58.44
2023-05-23T11:56:55.876Z,58.16
2023-05-23T11:57:55.909Z,60.99
2023-05-23T11:58:55.918Z,59.09
2023-05-23T11:59:55.872Z,59.92
2023-05-23T12:00:55.857Z,59.64
2023-05-23T12:01:55.855Z,59.29
2023-05-23T12:02:55.909Z,59.75
2023-05-23T12:03:56.072Z,60.44
2023-05-23T12:04:55.905Z,59.04
2023-05-23T12:05:55.824Z,60.39
2023-05-23T12:06:55.835Z,58.73
2023-05-23T12:07:55.836Z,60.21
2023-05-23T12:08:55.790Z,59.39
2023-05-23T12:09:55.836Z,58.86
2023-05-23T12:10:55.771Z,58.88
2023-05-23T12:11:55.776Z,62.16
2023-05-23T12:12:55.735Z,59.58
2023-05-23T12:13:55.757Z,59.38
2023-05-23T12:14:55.719Z,60.06
2023-05-23T12:15:55.765Z,59.29
2023-05-23T12:16:55.708Z,59.55
2023-05-23T12:17:55.758Z,58.72
2023-05-23T12:18:55.735Z,59.47
2023-05-23T12:19:55.713Z,57.46
2023-05-23T12:20:55.719Z,57.43
2023-05-23T12:21:55.692Z,58.99
2023-05-23T12:22:55.681Z,60.09
2023-05-23T12:23:55.732Z,60.29
2023-05-23T12:24:55.659Z,58.86
2023-05-23T12:25:55.688Z,60.08
2023-05-23T12:26:55.666Z,58.93
2023-05-23T12:27:55.680Z,59.91
2023-05-23T12:28:55.606Z,58.41
2023-05-23T12:29:55.660Z,59.38
2023-05-23T12:30:55.629Z,60.75
2023-05-23T12:31:55.748Z,61.27
2023-05-23T12:32:55.612Z,61.18
2023-05-23T12:33:55.630Z,61.43
2023-05-23T12:34:55.590Z,61.30
2023-05-23T12:35:55.615Z,60.33
2023-05-23T12:37:06.413Z,60.70
2023-05-23T12:37:56.581Z,61.08
2023-05-23T12:38:55.560Z,59.95
2023-05-23T12:39:55.562Z,59.98
2023-05-23T12:40:55.516Z,60.74
2023-05-23T12:41:55.565Z,60.94
2023-05-23T12:42:55.565Z,60.97
2023-05-23T12:43:55.527Z,61.84
2023-05-23T12:44:55.501Z,59.79
2023-05-23T12:45:55.517Z,58.64
2023-05-23T12:46:55.518Z,59.91
2023-05-23T12:47:55.562Z,59.88
2023-05-23T12:48:55.472Z,59.87
2023-05-23T12:49:55.465Z,58.82
2023-05-23T12:50:55.463Z,58.90
2023-05-23T12:51:55.470Z,59.55